Latest Weather Observations for Melville Water

IDW60801

Issued at 10:04 pm WST Friday 24 March 2017 (issued every 30 minutes, with the page automatically refreshed every 10 minutes)

About weather observations | Map of weather stations | Latest weather observations for WA | Other Formats
Station Details ID: 009091 Name: INNER DOLPHIN PYLON Lat: -31.99 Lon: 115.83 Height: 0.0 m
Data from the previous 72 hours. | See also: Recent months at Melville Water
Date/Time
WST
Temp
°C
App
Temp
°C
Dew
Point
°C
Rel
Hum
%
Delta-T
°C
Wind Press
QNH
hPa
Press
MSL
hPa
Rain since
9am
mm
Dir  Spd
km/h
Gust
km/h
Spd
kts
Gust
kts
24/10:00pm - - - - - S 7 9 4 5 - - -
24/09:30pm - - - - - S 9 11 5 6 - - -
24/09:00pm - - - - - SSE 13 15 7 8 - - -
24/08:30pm - - - - - SSE 13 15 7 8 - - -
24/08:00pm - - - - - S 15 17 8 9 - - -
24/07:30pm - - - - - S 19 22 10 12 - - -
24/07:00pm - - - - - SSW 22 26 12 14 - - -
24/06:30pm - - - - - SSW 20 24 11 13 - - -
24/06:00pm - - - - - SSW 26 32 14 17 - - -
24/05:30pm - - - - - SSW 28 32 15 17 - - -
24/05:00pm - - - - - SSW 26 32 14 17 - - -
24/04:30pm - - - - - SSW 32 43 17 23 - - -
24/04:00pm - - - - - SSW 32 37 17 20 - - -
24/03:30pm - - - - - SSW 30 37 16 20 - - -
24/03:00pm - - - - - SW 28 33 15 18 - - -
24/02:30pm - - - - - SW 28 35 15 19 - - -
24/02:00pm - - - - - SW 28 33 15 18 - - -
24/01:30pm - - - - - SW 24 28 13 15 - - -
24/01:00pm - - - - - SW 19 22 10 12 - - -
24/12:30pm - - - - - SW 15 20 8 11 - - -
24/12:00pm - - - - - SW 15 20 8 11 - - -
24/11:30am - - - - - SW 15 22 8 12 - - -
24/11:00am - - - - - WSW 4 7 2 4 - - -
24/10:30am - - - - - WSW 2 6 1 3 - - -
24/10:00am - - - - - WSW 4 7 2 4 - - -
24/09:30am - - - - - SW 4 6 2 3 - - -
24/09:00am - - - - - SW 9 13 5 7 - - -
24/08:30am - - - - - SW 6 9 3 5 - - -
24/08:00am - - - - - SW 2 4 1 2 - - -
24/07:30am - - - - - ESE 7 9 4 5 - - -
24/07:00am - - - - - SE 9 11 5 6 - - -
24/06:30am - - - - - SSE 7 11 4 6 - - -
24/06:00am - - - - - SE 6 7 3 4 - - -
24/05:30am - - - - - SE 9 13 5 7 - - -
24/05:00am - - - - - S 7 11 4 6 - - -
24/04:30am - - - - - SE 9 13 5 7 - - -
24/04:00am - - - - - S 13 19 7 10 - - -
24/03:30am - - - - - SSE 13 17 7 9 - - -
24/03:00am - - - - - SSE 11 15 6 8 - - -
24/02:30am - - - - - SSE 15 19 8 10 - - -
24/02:00am - - - - - SSE 13 19 7 10 - - -
24/01:30am - - - - - SSE 11 13 6 7 - - -
24/01:00am - - - - - S 11 15 6 8 - - -
24/12:30am - - - - - S 11 15 6 8 - - -
24/12:00am - - - - - S 11 15 6 8 - - -
 
Date/Time
WST
Temp
°C
App
Temp
°C
Dew
Point
°C
Rel
Hum
%
Delta-T
°C
Wind Press
QNH
hPa
Press
MSL
hPa
Rain since
9am
mm
Dir  Spd
km/h
Gust
km/h
Spd
kts
Gust
kts
23/11:30pm - - - - - S 13 19 7 10 - - -
23/11:00pm - - - - - S 11 15 6 8 - - -
23/10:30pm - - - - - SSE 11 17 6 9 - - -
23/10:00pm - - - - - S 13 19 7 10 - - -
23/09:30pm - - - - - S 19 22 10 12 - - -
23/09:00pm - - - - - S 17 24 9 13 - - -
23/08:30pm - - - - - S 24 28 13 15 - - -
23/08:00pm - - - - - SSW 24 32 13 17 - - -
23/07:30pm - - - - - SSW 28 33 15 18 - - -
23/07:00pm - - - - - S 20 28 11 15 - - -
23/06:30pm - - - - - SSW 30 37 16 20 - - -
23/06:00pm - - - - - SSW 30 37 16 20 - - -
23/05:30pm - - - - - SSW 30 39 16 21 - - -
23/05:00pm - - - - - SSW 28 35 15 19 - - -
23/04:30pm - - - - - SSW 28 33 15 18 - - -
23/04:00pm - - - - - SSW 30 37 16 20 - - -
23/03:30pm - - - - - SW 30 37 16 20 - - -
23/03:00pm - - - - - SW 30 37 16 20 - - -
23/02:30pm - - - - - SSW 28 35 15 19 - - -
23/02:00pm - - - - - SW 28 37 15 20 - - -
23/01:30pm - - - - - SW 26 33 14 18 - - -
23/01:00pm - - - - - SSW 24 30 13 16 - - -
23/12:30pm - - - - - SSW 26 33 14 18 - - -
23/12:00pm - - - - - SSW 24 32 13 17 - - -
23/11:30am - - - - - SSW 20 28 11 15 - - -
23/11:00am - - - - - SSW 17 22 9 12 - - -
23/10:30am - - - - - SSW 24 32 13 17 - - -
23/10:00am - - - - - SSW 17 22 9 12 - - -
23/09:30am - - - - - SSW 20 26 11 14 - - -
23/09:00am - - - - - SSW 9 13 5 7 - - -
23/08:30am - - - - - S 15 20 8 11 - - -
23/08:00am - - - - - SSW 11 15 6 8 - - -
23/07:30am - - - - - S 9 13 5 7 - - -
23/07:00am - - - - - S 9 13 5 7 - - -
23/06:30am - - - - - SSE 4 7 2 4 - - -
23/06:00am - - - - - S 7 9 4 5 - - -
23/05:30am - - - - - S 11 17 6 9 - - -
23/05:00am - - - - - SSE 9 11 5 6 - - -
23/04:30am - - - - - S 15 20 8 11 - - -
23/04:00am - - - - - S 17 22 9 12 - - -
23/03:30am - - - - - S 17 22 9 12 - - -
23/03:00am - - - - - SSW 19 26 10 14 - - -
23/02:30am - - - - - SW 17 22 9 12 - - -
23/02:00am - - - - - SW 19 26 10 14 - - -
23/01:30am - - - - - WSW 6 7 3 4 - - -
23/01:00am - - - - - SW 7 11 4 6 - - -
23/12:30am - - - - - WSW 7 11 4 6 - - -
23/12:00am - - - - - WNW 7 11 4 6 - - -
 
Date/Time
WST
Temp
°C
App
Temp
°C
Dew
Point
°C
Rel
Hum
%
Delta-T
°C
Wind Press
QNH
hPa
Press
MSL
hPa
Rain since
9am
mm
Dir  Spd
km/h
Gust
km/h
Spd
kts
Gust
kts
22/11:30pm - - - - - WSW 9 15 5 8 - - -
22/11:00pm - - - - - WSW 13 17 7 9 - - -
22/10:30pm - - - - - W 9 13 5 7 - - -
22/10:00pm - - - - - W 11 17 6 9 - - -
22/09:30pm - - - - - WNW 15 20 8 11 - - -
22/09:00pm - - - - - W 15 20 8 11 - - -
22/08:30pm - - - - - W 11 17 6 9 - - -
22/08:00pm - - - - - W 13 17 7 9 - - -
22/07:30pm - - - - - WNW 11 19 6 10 - - -
22/07:00pm - - - - - WNW 13 20 7 11 - - -
22/06:30pm - - - - - WNW 13 22 7 12 - - -
22/06:00pm - - - - - WNW 15 22 8 12 - - -
22/05:30pm - - - - - W 19 26 10 14 - - -
22/05:00pm - - - - - WNW 22 28 12 15 - - -
22/04:30pm - - - - - NW 26 37 14 20 - - -
22/04:00pm - - - - - NW 26 37 14 20 - - -
22/03:30pm - - - - - NW 26 37 14 20 - - -
22/03:00pm - - - - - WNW 26 37 14 20 - - -
22/02:30pm - - - - - NW 26 35 14 19 - - -
22/02:00pm - - - - - WNW 30 43 16 23 - - -
22/01:30pm - - - - - NW 26 39 14 21 - - -
22/01:00pm - - - - - NW 28 44 15 24 - - -
22/12:30pm - - - - - WNW 28 41 15 22 - - -
22/12:00pm - - - - - NW 30 43 16 23 - - -
22/11:30am - - - - - NW 30 43 16 23 - - -
22/11:00am - - - - - NW 28 35 15 19 - - -
22/10:30am - - - - - WNW 24 32 13 17 - - -
22/10:00am - - - - - WNW 20 32 11 17 - - -
22/09:30am - - - - - NW 24 37 13 20 - - -
22/09:00am - - - - - WNW 22 33 12 18 - - -
22/08:30am - - - - - WNW 22 35 12 19 - - -
22/08:00am - - - - - WNW 19 28 10 15 - - -
22/07:30am - - - - - WNW 20 30 11 16 - - -
22/07:00am - - - - - WNW 19 30 10 16 - - -
22/06:30am - - - - - WNW 17 24 9 13 - - -
22/06:00am - - - - - NW 22 37 12 20 - - -
22/05:30am - - - - - NW 26 41 14 22 - - -
22/05:00am - - - - - NW 20 32 11 17 - - -
22/04:30am - - - - - N 22 33 12 18 - - -
22/04:00am - - - - - N 28 48 15 26 - - -
22/03:57am - - - - - N 30 48 16 26 - - -
22/03:30am - - - - - NNE 33 44 18 24 - - -
22/03:00am - - - - - NNE 37 48 20 26 - - -
22/02:30am - - - - - NE 35 48 19 26 - - -
22/02:00am - - - - - NE 28 39 15 21 - - -
22/01:30am - - - - - NE 20 24 11 13 - - -
22/01:00am - - - - - ENE 20 24 11 13 - - -
22/12:30am - - - - - ENE 20 30 11 16 - - -
22/12:00am - - - - - E 20 26 11 14 - - -
 
Date/Time
WST
Temp
°C
App
Temp
°C
Dew
Point
°C
Rel
Hum
%
Delta-T
°C
Wind Press
QNH
hPa
Press
MSL
hPa
Rain since
9am
mm
Dir  Spd
km/h
Gust
km/h
Spd
kts
Gust
kts
21/11:30pm - - - - - E 15 19 8 10 - - -
21/11:00pm - - - - - ENE 24 33 13 18 - - -
21/10:30pm - - - - - ENE 20 28 11 15 - - -

Other Formats:

Comma delimited format used in spreadsheet applications
http://www.bom.gov.au/fwo/IDW60801/IDW60801.95620.axf

JavaScript Object Notation format (JSON) in row-major order
http://www.bom.gov.au/fwo/IDW60801/IDW60801.95620.json